Time;durP1;ratioP1;P1;durP2;ratioP2;P2;SDS_P1;SDS_P2;PMS_P1;PMS_P2;Temp;Humidity;BMP_temperature;BMP_pressure;BME280_temperature;BME280_humidity;BME280_pressure;Samples;Min_cycle;Max_cycle;Signal;HPM_P1;HPM_P2
2022/10/20 00:00:07;;;;;;;;;;;;;;;;;;5036035;28;1181;-71
2022/10/20 00:02:33;;;;;;;;;;;;;;;;;;5053917;28;1981;-73
2022/10/20 00:04:59;;;;;;;;;;;;;;;;;;5036039;28;1327;-72
2022/10/20 00:07:26;;;;;;;;;;;;;;;;;;5055226;28;999;-72
2022/10/20 00:09:52;;;;;;;;;;;;;;;;;;5054170;28;1516;-72
2022/10/20 00:12:18;;;;;;;;;;;;;;;;;;5053773;28;874;-72
2022/10/20 00:14:46;;;;;;;;;;;;;;;;;;5036212;28;1491;-73
2022/10/20 00:17:12;;;;;;;;;;;;;;;;;;5053771;28;1084;-73
2022/10/20 00:19:38;;;;;;;;;;;;;;;;;;5035872;28;1509;-73
2022/10/20 00:22:04;;;;;;;;;;;;;;;;;;5053299;28;1922;-71
2022/10/20 00:24:31;;;;;;;;;;;;;;;;;;5050468;28;1540;-73
2022/10/20 00:26:57;;;;;;;;;;;;;;;;;;5035792;28;1125;-72
2022/10/20 00:29:23;;;;;;;;;;;;;;;;;;5052228;28;1172;-72
2022/10/20 00:31:51;;;;;;;;;;;;;;;;;;5053349;28;1071;-72
2022/10/20 00:34:17;;;;;;;;;;;;;;;;;;5035487;28;1372;-71
2022/10/20 00:36:43;;;;;;;;;;;;;;;;;;5053653;28;775;-71
2022/10/20 00:39:09;;;;;;;;;;;;;;;;;;5053347;28;937;-72
2022/10/20 00:41:36;;;;;;;;;;;;;;;;;;5035135;28;1973;-71
2022/10/20 00:44:02;;;;;;;;;;;;;;;;;;5053040;28;1375;-72
2022/10/20 00:46:30;;;;;;;;;;;;;;;;;;5052853;28;826;-72
2022/10/20 00:48:59;;;;;;;;;;;;;;;;;;5052870;28;1492;-73
2022/10/20 00:51:26;;;;;;;;;;;;;;;;;;5035089;28;1299;-71
2022/10/20 00:53:53;;;;;;;;;;;;;;;;;;5034726;28;1310;-71
2022/10/20 00:56:19;;;;;;;;;;;;;;;;;;5053144;28;917;-70
2022/10/20 00:58:45;;;;;;;;;;;;;;;;;;5053215;28;761;-72
2022/10/20 01:01:12;;;;;;;;;;;;;;;;;;5052950;28;1914;-72
2022/10/20 01:03:40;;;;;;;;;;;;;;;;;;5052925;28;1371;-72
2022/10/20 01:06:08;;;;;;;;;;;;;;;;;;5052776;28;1068;-73
2022/10/20 01:08:34;;;;;;;;;;;;;;;;;;5034904;28;1172;-73
2022/10/20 01:11:02;;;;;;;;;;;;;;;;;;5052641;28;1087;-72
2022/10/20 01:13:29;;;;;;;;;;;;;;;;;;5052517;28;1278;-72
2022/10/20 01:15:58;;;;;;;;;;;;;;;;;;5052582;28;1118;-72
2022/10/20 01:18:25;;;;;;;;;;;;;;;;;;5052408;28;1442;-73
2022/10/20 01:21:02;;;;;;;;;;;;;;;;;;5034676;28;1271;-72
2022/10/20 01:23:44;;;;;;;;;;;;;;;;;;5052156;28;1918;-73
2022/10/20 01:26:19;;;;;;;;;;;;;;;;;;5052661;28;1067;-73
2022/10/20 01:28:47;;;;;;;;;;;;;;;;;;5052465;28;866;-73
2022/10/20 01:31:16;;;;;;;;;;;;;;;;;;5052477;28;1106;-71
2022/10/20 01:33:43;;;;;;;;;;;;;;;;;;5052308;28;1358;-72
2022/10/20 01:36:10;;;;;;;;;;;;;;;;;;5052117;28;1099;-72
2022/10/20 01:38:39;;;;;;;;;;;;;;;;;;5034547;28;1227;-73
2022/10/20 01:41:06;;;;;;;;;;;;;;;;;;5052307;28;988;-73
2022/10/20 01:43:33;;;;;;;;;;;;;;;;;;5033989;28;1918;-73
2022/10/20 01:46:00;;;;;;;;;;;;;;;;;;5034299;28;1227;-72
2022/10/20 01:48:28;;;;;;;;;;;;;;;;;;5052166;28;1525;-73
2022/10/20 01:50:54;;;;;;;;;;;;;;;;;;5052422;28;924;-72
2022/10/20 01:53:20;;;;;;;;;;;;;;;;;;5051743;28;1384;-73
2022/10/20 01:55:49;;;;;;;;;;;;;;;;;;5052282;28;1064;-73
2022/10/20 01:58:16;;;;;;;;;;;;;;;;;;5052231;28;1056;-73
2022/10/20 02:00:42;;;;;;;;;;;;;;;;;;5052083;28;1047;-73
2022/10/20 02:03:17;;;;;;;;;;;;;;;;;;5050406;28;1971;-73
2022/10/20 02:05:46;;;;;;;;;;;;;;;;;;5052089;28;1063;-73
2022/10/20 02:08:13;;;;;;;;;;;;;;;;;;5051983;28;944;-72
2022/10/20 02:10:41;;;;;;;;;;;;;;;;;;5052103;28;748;-73
2022/10/20 02:13:08;;;;;;;;;;;;;;;;;;5051911;28;1332;-72
2022/10/20 02:15:34;;;;;;;;;;;;;;;;;;5051019;28;1116;-73
2022/10/20 02:18:01;;;;;;;;;;;;;;;;;;5050320;28;1436;-73
2022/10/20 02:20:29;;;;;;;;;;;;;;;;;;5053689;28;1155;-72
2022/10/20 02:22:55;;;;;;;;;;;;;;;;;;5055368;28;1915;-73
2022/10/20 02:25:21;;;;;;;;;;;;;;;;;;5056180;28;846;-73
2022/10/20 02:27:51;;;;;;;;;;;;;;;;;;5055908;28;759;-71
2022/10/20 02:30:17;;;;;;;;;;;;;;;;;;5054528;28;1156;-73
2022/10/20 02:32:48;;;;;;;;;;;;;;;;;;5055726;28;1304;-72
2022/10/20 02:35:14;;;;;;;;;;;;;;;;;;5037581;28;1417;-73
2022/10/20 02:37:41;;;;;;;;;;;;;;;;;;5055871;28;1119;-73
2022/10/20 02:40:08;;;;;;;;;;;;;;;;;;5055723;28;827;-73
2022/10/20 02:42:34;;;;;;;;;;;;;;;;;;5053987;28;1906;-73
2022/10/20 02:45:00;;;;;;;;;;;;;;;;;;5055446;28;1063;-73
2022/10/20 02:47:27;;;;;;;;;;;;;;;;;;5037468;28;1450;-73
2022/10/20 02:49:53;;;;;;;;;;;;;;;;;;5055438;28;1044;-72
2022/10/20 02:52:19;;;;;;;;;;;;;;;;;;5037485;28;1161;-71
2022/10/20 02:54:46;;;;;;;;;;;;;;;;;;5055092;28;1396;-73
2022/10/20 02:57:13;;;;;;;;;;;;;;;;;;5037396;28;976;-71
2022/10/20 02:59:39;;;;;;;;;;;;;;;;;;5055237;28;1063;-72
2022/10/20 03:02:05;;;;;;;;;;;;;;;;;;5071574;22;3576;-73
2022/10/20 03:04:31;;;;;;;;;;;;;;;;;;5095439;28;1077;-74
2022/10/20 03:06:57;;;;;;;;;;;;;;;;;;5095525;28;1063;-74
2022/10/20 03:09:24;;;;;;;;;;;;;;;;;;5096122;28;857;-75
2022/10/20 03:11:51;;;;;;;;;;;;;;;;;;5089825;28;1692;-74
2022/10/20 03:14:17;;;;;;;;;;;;;;;;;;5075364;28;1109;-75
2022/10/20 03:16:44;;;;;;;;;;;;;;;;;;5062818;28;1509;-75
2022/10/20 03:19:10;;;;;;;;;;;;;;;;;;5095332;28;1083;-74
2022/10/20 03:21:36;;;;;;;;;;;;;;;;;;5094837;28;1285;-75
2022/10/20 03:24:02;;;;;;;;;;;;;;;;;;5095194;28;1976;-75
2022/10/20 03:26:28;;;;;;;;;;;;;;;;;;5095310;28;925;-75
2022/10/20 03:28:56;;;;;;;;;;;;;;;;;;5094916;28;1071;-75
2022/10/20 03:31:22;;;;;;;;;;;;;;;;;;5076079;28;1423;-74
2022/10/20 03:33:48;;;;;;;;;;;;;;;;;;5076899;28;1171;-74
2022/10/20 03:36:14;;;;;;;;;;;;;;;;;;5076523;28;1108;-74
2022/10/20 03:38:41;;;;;;;;;;;;;;;;;;5094979;28;992;-75
2022/10/20 03:41:07;;;;;;;;;;;;;;;;;;5094556;28;1270;-74
2022/10/20 03:43:34;;;;;;;;;;;;;;;;;;5094416;28;1910;-75
2022/10/20 03:46:02;;;;;;;;;;;;;;;;;;5092627;28;1436;-74
2022/10/20 03:48:29;;;;;;;;;;;;;;;;;;5056798;28;1270;-74
2022/10/20 03:50:55;;;;;;;;;;;;;;;;;;5074691;28;1478;-74
2022/10/20 03:53:21;;;;;;;;;;;;;;;;;;5071987;28;1471;-74
2022/10/20 03:55:48;;;;;;;;;;;;;;;;;;5081937;28;1378;-72
2022/10/20 03:58:14;;;;;;;;;;;;;;;;;;5084370;28;1799;-74
2022/10/20 04:00:40;;;;;;;;;;;;;;;;;;5076210;28;1474;-72
2022/10/20 04:03:08;;;;;;;;;;;;;;;;;;5082460;28;1963;-73
2022/10/20 04:05:34;;;;;;;;;;;;;;;;;;5094298;28;1103;-73
2022/10/20 04:08:00;;;;;;;;;;;;;;;;;;5094439;28;841;-74
2022/10/20 04:10:26;;;;;;;;;;;;;;;;;;5070316;28;1419;-73
2022/10/20 04:12:52;;;;;;;;;;;;;;;;;;5075545;28;1707;-73
2022/10/20 04:15:18;;;;;;;;;;;;;;;;;;5069578;28;1431;-73
2022/10/20 04:17:45;;;;;;;;;;;;;;;;;;5081248;28;1456;-73
2022/10/20 04:20:12;;;;;;;;;;;;;;;;;;5086827;28;1387;-73
2022/10/20 04:22:39;;;;;;;;;;;;;;;;;;5078906;28;1914;-73
2022/10/20 04:25:05;;;;;;;;;;;;;;;;;;5073640;28;1361;-73
2022/10/20 04:27:32;;;;;;;;;;;;;;;;;;5094186;28;1135;-73
2022/10/20 04:29:58;;;;;;;;;;;;;;;;;;5075844;28;1280;-72
2022/10/20 04:32:24;;;;;;;;;;;;;;;;;;5061132;28;1572;-73
2022/10/20 04:34:50;;;;;;;;;;;;;;;;;;5053569;28;1072;-73
2022/10/20 04:37:18;;;;;;;;;;;;;;;;;;5035592;28;1138;-73
2022/10/20 04:39:44;;;;;;;;;;;;;;;;;;5053666;28;1126;-72
2022/10/20 04:42:10;;;;;;;;;;;;;;;;;;5052228;28;1405;-72
2022/10/20 04:44:37;;;;;;;;;;;;;;;;;;5053348;28;1977;-73
2022/10/20 04:47:03;;;;;;;;;;;;;;;;;;5081882;28;1480;-73
2022/10/20 04:49:29;;;;;;;;;;;;;;;;;;5093513;28;1063;-72
2022/10/20 04:51:55;;;;;;;;;;;;;;;;;;5093386;28;1255;-72
2022/10/20 04:54:23;;;;;;;;;;;;;;;;;;5074995;28;1242;-72
2022/10/20 04:56:49;;;;;;;;;;;;;;;;;;5093604;28;940;-75
2022/10/20 04:59:15;;;;;;;;;;;;;;;;;;5063429;28;1306;-74
2022/10/20 05:01:41;;;;;;;;;;;;;;;;;;5069647;28;1431;-74
2022/10/20 05:04:08;;;;;;;;;;;;;;;;;;5054946;28;1944;-74
2022/10/20 05:06:34;;;;;;;;;;;;;;;;;;5054897;28;1172;-72
2022/10/20 05:09:01;;;;;;;;;;;;;;;;;;5073002;28;1060;-73
2022/10/20 05:11:29;;;;;;;;;;;;;;;;;;5072685;28;1300;-73
2022/10/20 05:13:55;;;;;;;;;;;;;;;;;;5072694;28;1051;-73
2022/10/20 05:16:22;;;;;;;;;;;;;;;;;;5073167;28;1444;-71
2022/10/20 05:18:50;;;;;;;;;;;;;;;;;;5072645;28;1087;-73
2022/10/20 05:21:18;;;;;;;;;;;;;;;;;;5072433;28;1273;-73
2022/10/20 05:23:44;;;;;;;;;;;;;;;;;;5072570;28;1910;-72
2022/10/20 05:26:11;;;;;;;;;;;;;;;;;;5072598;28;893;-73
2022/10/20 05:28:39;;;;;;;;;;;;;;;;;;5054683;28;1275;-73
2022/10/20 05:31:06;;;;;;;;;;;;;;;;;;5072293;28;1309;-72
2022/10/20 05:33:32;;;;;;;;;;;;;;;;;;5053223;28;1276;-72
2022/10/20 05:35:59;;;;;;;;;;;;;;;;;;5052658;28;1340;-72
2022/10/20 05:38:25;;;;;;;;;;;;;;;;;;5070865;28;952;-72
2022/10/20 05:40:51;;;;;;;;;;;;;;;;;;5070588;28;1317;-72
2022/10/20 05:43:17;;;;;;;;;;;;;;;;;;5070199;28;1915;-72
2022/10/20 05:45:45;;;;;;;;;;;;;;;;;;5078113;28;1436;-72
2022/10/20 05:48:11;;;;;;;;;;;;;;;;;;5091375;28;763;-73
2022/10/20 05:50:37;;;;;;;;;;;;;;;;;;5092677;28;1068;-72
2022/10/20 05:53:03;;;;;;;;;;;;;;;;;;5092291;28;819;-72
2022/10/20 05:55:29;;;;;;;;;;;;;;;;;;5091709;28;1455;-72
2022/10/20 05:57:56;;;;;;;;;;;;;;;;;;5072993;28;1463;-71
2022/10/20 06:00:29;;;;;;;;;;;;;;;;;;5072221;28;890;-72
2022/10/20 06:02:56;;;;;;;;;;;;;;;;;;5071857;28;1898;-71
2022/10/20 06:05:22;;;;;;;;;;;;;;;;;;5072145;28;1138;-72
2022/10/20 06:07:49;;;;;;;;;;;;;;;;;;5072276;28;1044;-72
2022/10/20 06:10:15;;;;;;;;;;;;;;;;;;5072447;28;1083;-72
2022/10/20 06:12:41;;;;;;;;;;;;;;;;;;5072080;28;1284;-72
2022/10/20 06:15:08;;;;;;;;;;;;;;;;;;5072235;28;1451;-72
2022/10/20 06:17:34;;;;;;;;;;;;;;;;;;5072345;28;1020;-72
2022/10/20 06:20:04;;;;;;;;;;;;;;;;;;5072391;28;1060;-71
2022/10/20 06:22:31;;;;;;;;;;;;;;;;;;5072050;28;1594;-73
2022/10/20 06:24:57;;;;;;;;;;;;;;;;;;5054354;28;1977;-73
2022/10/20 06:27:23;;;;;;;;;;;;;;;;;;5051933;28;1096;-72
2022/10/20 06:29:49;;;;;;;;;;;;;;;;;;5052013;28;960;-72
2022/10/20 06:32:17;;;;;;;;;;;;;;;;;;5051574;28;1297;-72
2022/10/20 06:34:43;;;;;;;;;;;;;;;;;;5051920;28;1056;-72
2022/10/20 06:37:10;;;;;;;;;;;;;;;;;;5051565;28;1072;-72
2022/10/20 06:39:37;;;;;;;;;;;;;;;;;;5052175;28;1123;-72
2022/10/20 06:42:04;;;;;;;;;;;;;;;;;;5051444;28;1241;-74
2022/10/20 06:44:31;;;;;;;;;;;;;;;;;;5054088;28;1902;-72
2022/10/20 06:46:57;;;;;;;;;;;;;;;;;;5091986;28;829;-71
2022/10/20 06:49:23;;;;;;;;;;;;;;;;;;5091147;28;1610;-73
2022/10/20 06:51:49;;;;;;;;;;;;;;;;;;5091832;28;1461;-72
2022/10/20 06:54:17;;;;;;;;;;;;;;;;;;5091752;28;1123;-72
2022/10/20 06:56:43;;;;;;;;;;;;;;;;;;5083093;28;1448;-72
2022/10/20 06:59:09;;;;;;;;;;;;;;;;;;5053632;28;1303;-72
2022/10/20 07:01:36;;;;;;;;;;;;;;;;;;5071261;28;1387;-73
2022/10/20 07:04:03;;;;;;;;;;;;;;;;;;5071467;28;1963;-72
2022/10/20 07:06:30;;;;;;;;;;;;;;;;;;5074358;28;703;-73
2022/10/20 07:08:57;;;;;;;;;;;;;;;;;;5057375;28;1320;-72
2022/10/20 07:11:25;;;;;;;;;;;;;;;;;;5074314;28;1377;-72
2022/10/20 07:13:51;;;;;;;;;;;;;;;;;;5056620;28;1130;-74
2022/10/20 07:16:18;;;;;;;;;;;;;;;;;;5074567;28;1079;-74
2022/10/20 07:18:44;;;;;;;;;;;;;;;;;;5057299;28;1152;-73
2022/10/20 07:21:11;;;;;;;;;;;;;;;;;;5056865;28;1333;-73
2022/10/20 07:23:38;;;;;;;;;;;;;;;;;;5056764;28;1985;-72
2022/10/20 07:26:05;;;;;;;;;;;;;;;;;;5075089;28;1452;-72
2022/10/20 07:28:32;;;;;;;;;;;;;;;;;;5057007;28;1215;-72
2022/10/20 07:31:01;;;;;;;;;;;;;;;;;;5074849;28;1319;-73
2022/10/20 07:33:28;;;;;;;;;;;;;;;;;;5074558;28;1091;-73
2022/10/20 07:35:54;;;;;;;;;;;;;;;;;;5074682;28;1009;-73
2022/10/20 07:38:20;;;;;;;;;;;;;;;;;;5074687;28;1052;-72
2022/10/20 07:40:46;;;;;;;;;;;;;;;;;;5074822;28;1273;-73
2022/10/20 07:43:12;;;;;;;;;;;;;;;;;;5056232;28;1251;-72
2022/10/20 07:45:40;;;;;;;;;;;;;;;;;;5056687;28;1918;-72
2022/10/20 07:48:08;;;;;;;;;;;;;;;;;;5074391;28;1052;-74
2022/10/20 07:50:35;;;;;;;;;;;;;;;;;;5074625;28;917;-73
2022/10/20 07:53:01;;;;;;;;;;;;;;;;;;5056407;28;1376;-73
2022/10/20 07:55:27;;;;;;;;;;;;;;;;;;5074770;28;1451;-73
2022/10/20 07:57:53;;;;;;;;;;;;;;;;;;5056561;28;1167;-72
2022/10/20 08:00:19;;;;;;;;;;;;;;;;;;5056141;28;1152;-73
2022/10/20 08:02:47;;;;;;;;;;;;;;;;;;5074033;28;1319;-72
2022/10/20 08:05:13;;;;;;;;;;;;;;;;;;5056114;28;1981;-74
2022/10/20 08:07:39;;;;;;;;;;;;;;;;;;5056304;28;1164;-74
2022/10/20 08:10:06;;;;;;;;;;;;;;;;;;5074221;28;1126;-74
2022/10/20 08:12:32;;;;;;;;;;;;;;;;;;5055760;28;1369;-72
2022/10/20 08:14:59;;;;;;;;;;;;;;;;;;5056128;28;1091;-73
2022/10/20 08:17:25;;;;;;;;;;;;;;;;;;5054847;28;1499;-73
2022/10/20 08:19:53;;;;;;;;;;;;;;;;;;5074054;28;1142;-72
2022/10/20 08:22:19;;;;;;;;;;;;;;;;;;5073426;28;1294;-73
2022/10/20 08:24:45;;;;;;;;;;;;;;;;;;5073801;28;1910;-73
2022/10/20 08:27:11;;;;;;;;;;;;;;;;;;5059205;28;1423;-73
2022/10/20 08:29:38;;;;;;;;;;;;;;;;;;5035728;28;1177;-73
2022/10/20 08:32:04;;;;;;;;;;;;;;;;;;5053478;28;1777;-73
2022/10/20 08:34:30;;;;;;;;;;;;;;;;;;5053724;28;1118;-72
2022/10/20 08:36:59;;;;;;;;;;;;;;;;;;5035761;28;1194;-73
2022/10/20 08:39:25;;;;;;;;;;;;;;;;;;5035813;28;1119;-73
2022/10/20 08:41:51;;;;;;;;;;;;;;;;;;5053237;28;1302;-73
2022/10/20 08:44:18;;;;;;;;;;;;;;;;;;5053330;28;1968;-73
2022/10/20 08:46:44;;;;;;;;;;;;;;;;;;5053450;28;1071;-73
2022/10/20 08:49:12;;;;;;;;;;;;;;;;;;5035376;28;1187;-73
2022/10/20 08:51:38;;;;;;;;;;;;;;;;;;5035251;28;1315;-73
2022/10/20 08:54:06;;;;;;;;;;;;;;;;;;5053140;28;1123;-73
2022/10/20 08:56:33;;;;;;;;;;;;;;;;;;5079658;28;1467;-73
2022/10/20 08:58:59;;;;;;;;;;;;;;;;;;5093345;28;1122;-73
2022/10/20 09:01:26;;;;;;;;;;;;;;;;;;5092999;28;1298;-73
2022/10/20 09:03:54;;;;;;;;;;;;;;;;;;5109216;22;3716;-70
2022/10/20 09:06:20;;;;;;;;;;;;;;;;;;5093063;28;1139;-70
2022/10/20 09:08:47;;;;;;;;;;;;;;;;;;5093279;28;1056;-71
2022/10/20 09:11:15;;;;;;;;;;;;;;;;;;5093145;28;772;-71
2022/10/20 09:13:41;;;;;;;;;;;;;;;;;;5092763;28;1315;-71
2022/10/20 09:16:10;;;;;;;;;;;;;;;;;;5093545;28;716;-71
2022/10/20 09:18:36;;;;;;;;;;;;;;;;;;5092828;28;1071;-71
2022/10/20 09:21:03;;;;;;;;;;;;;;;;;;5093143;28;901;-70
2022/10/20 09:23:31;;;;;;;;;;;;;;;;;;5092409;28;1233;-70
2022/10/20 09:25:57;;;;;;;;;;;;;;;;;;5092749;28;1909;-71
2022/10/20 09:28:25;;;;;;;;;;;;;;;;;;5092527;28;1119;-69
2022/10/20 09:30:52;;;;;;;;;;;;;;;;;;5092948;28;1099;-70
2022/10/20 09:33:20;;;;;;;;;;;;;;;;;;5092403;28;1286;-70
2022/10/20 09:35:46;;;;;;;;;;;;;;;;;;5092831;28;1079;-72
2022/10/20 09:38:16;;;;;;;;;;;;;;;;;;5091694;28;1293;-71
2022/10/20 09:40:43;;;;;;;;;;;;;;;;;;5092503;28;813;-71
2022/10/20 09:43:09;;;;;;;;;;;;;;;;;;5092202;28;1285;-70
2022/10/20 09:45:37;;;;;;;;;;;;;;;;;;5092629;28;1976;-71
2022/10/20 09:48:05;;;;;;;;;;;;;;;;;;5098958;28;2010;-71
2022/10/20 09:50:32;;;;;;;;;;;;;;;;;;5091116;28;1115;-71
2022/10/20 09:52:58;;;;;;;;;;;;;;;;;;5091997;28;1299;-71
2022/10/20 09:55:26;;;;;;;;;;;;;;;;;;5092421;28;1431;-70
2022/10/20 09:57:52;;;;;;;;;;;;;;;;;;5092456;28;1475;-70
2022/10/20 10:00:22;;;;;;;;;;;;;;;;;;5092171;28;944;-70
2022/10/20 10:02:50;;;;;;;;;;;;;;;;;;5091978;28;1368;-70
2022/10/20 10:05:18;;;;;;;;;;;;;;;;;;5091036;28;1984;-70
2022/10/20 10:07:44;;;;;;;;;;;;;;;;;;5092530;28;782;-71
2022/10/20 10:10:22;;;;;;;;;;;;;;;;;;5092349;28;1079;-70
2022/10/20 10:12:51;;;;;;;;;;;;;;;;;;5092073;28;1372;-71
2022/10/20 10:15:23;;;;;;;;;;;;;;;;;;5092315;28;877;-70
2022/10/20 10:17:51;;;;;;;;;;;;;;;;;;5092338;28;1095;-71
2022/10/20 10:20:26;;;;;;;;;;;;;;;;;;5092261;28;948;-70
2022/10/20 10:22:52;;;;;;;;;;;;;;;;;;5091719;28;1390;-70
2022/10/20 10:25:20;;;;;;;;;;;;;;;;;;5091988;28;1918;-71
2022/10/20 10:27:56;;;;;;;;;;;;;;;;;;5090185;28;1434;-71
2022/10/20 10:30:27;;;;;;;;;;;;;;;;;;5091985;28;1078;-72
2022/10/20 10:32:54;;;;;;;;;;;;;;;;;;5091858;28;1671;-71
2022/10/20 10:35:22;;;;;;;;;;;;;;;;;;5091899;28;762;-71
2022/10/20 10:37:48;;;;;;;;;;;;;;;;;;5092223;28;1055;-71
2022/10/20 10:40:15;;;;;;;;;;;;;;;;;;5093264;28;1047;-71
2022/10/20 10:42:45;;;;;;;;;;;;;;;;;;5095973;28;1295;-72
2022/10/20 10:45:15;;;;;;;;;;;;;;;;;;5096260;28;1975;-71
2022/10/20 10:47:50;;;;;;;;;;;;;;;;;;5095851;28;1123;-72
2022/10/20 10:50:24;;;;;;;;;;;;;;;;;;5095971;28;1035;-71
2022/10/20 10:52:51;;;;;;;;;;;;;;;;;;5095384;28;1380;-71
2022/10/20 10:55:18;;;;;;;;;;;;;;;;;;5095658;28;1502;-71
2022/10/20 10:57:48;;;;;;;;;;;;;;;;;;5094296;28;1245;-71
2022/10/20 11:00:15;;;;;;;;;;;;;;;;;;5095708;28;1122;-72
2022/10/20 11:03:08;;;;;;;;;;;;;;;;;;5095161;28;1325;-72
2022/10/20 11:05:45;;;;;;;;;;;;;;;;;;5058911;28;1919;-72
2022/10/20 11:08:13;;;;;;;;;;;;;;;;;;5095625;28;790;-71
2022/10/20 11:10:41;;;;;;;;;;;;;;;;;;5095115;28;1126;-72
2022/10/20 11:13:14;;;;;;;;;;;;;;;;;;5095087;28;1378;-72
2022/10/20 11:15:47;;;;;;;;;;;;;;;;;;5095176;28;869;-72
2022/10/20 11:18:14;;;;;;;;;;;;;;;;;;5095385;28;742;-71
2022/10/20 11:20:43;;;;;;;;;;;;;;;;;;5095090;28;1067;-71
2022/10/20 11:23:16;;;;;;;;;;;;;;;;;;5094829;28;1375;-72
2022/10/20 11:25:44;;;;;;;;;;;;;;;;;;5094866;28;1973;-72
2022/10/20 11:28:15;;;;;;;;;;;;;;;;;;5095115;28;798;-71
2022/10/20 11:30:41;;;;;;;;;;;;;;;;;;5094932;28;959;-72
2022/10/20 11:33:11;;;;;;;;;;;;;;;;;;5094780;28;1372;-72
2022/10/20 11:35:38;;;;;;;;;;;;;;;;;;5094826;28;1122;-72
2022/10/20 11:38:11;;;;;;;;;;;;;;;;;;5095005;28;1071;-72
2022/10/20 11:40:38;;;;;;;;;;;;;;;;;;5094649;28;1122;-72
2022/10/20 11:43:05;;;;;;;;;;;;;;;;;;5094589;28;1252;-72
2022/10/20 11:45:32;;;;;;;;;;;;;;;;;;5110224;28;1914;-72
2022/10/20 11:48:00;;;;;;;;;;;;;;;;;;5094799;28;857;-73
2022/10/20 11:50:26;;;;;;;;;;;;;;;;;;5094419;28;1118;-71
2022/10/20 11:53:13;;;;;;;;;;;;;;;;;;5092787;28;1337;-71
2022/10/20 11:55:49;;;;;;;;;;;;;;;;;;5094174;28;1431;-73
2022/10/20 11:58:19;;;;;;;;;;;;;;;;;;5094470;28;842;-73
2022/10/20 12:00:52;;;;;;;;;;;;;;;;;;5094521;28;790;-72
2022/10/20 12:03:38;;;;;;;;;;;;;;;;;;5093886;28;1313;-71
2022/10/20 12:06:13;;;;;;;;;;;;;;;;;;5094387;28;1906;-72
2022/10/20 12:08:58;;;;;;;;;;;;;;;;;;5094247;28;879;-72
2022/10/20 12:11:27;;;;;;;;;;;;;;;;;;5093916;28;1079;-73
2022/10/20 12:13:56;;;;;;;;;;;;;;;;;;5094359;28;1292;-73
2022/10/20 12:16:41;;;;;;;;;;;;;;;;;;5093873;28;933;-73
2022/10/20 12:19:15;;;;;;;;;;;;;;;;;;5094324;28;838;-72
2022/10/20 12:21:53;;;;;;;;;;;;;;;;;;5093640;28;935;-72
2022/10/20 12:24:30;;;;;;;;;;;;;;;;;;5093266;28;1432;-73
2022/10/20 12:27:11;;;;;;;;;;;;;;;;;;5094044;28;1976;-73
2022/10/20 12:29:58;;;;;;;;;;;;;;;;;;5093816;28;1125;-73
2022/10/20 12:32:25;;;;;;;;;;;;;;;;;;5093656;28;1254;-72
2022/10/20 12:34:52;;;;;;;;;;;;;;;;;;5093854;28;829;-72
2022/10/20 12:37:19;;;;;;;;;;;;;;;;;;5093837;28;1141;-72
2022/10/20 12:39:45;;;;;;;;;;;;;;;;;;5093709;28;1207;-72
2022/10/20 12:42:18;;;;;;;;;;;;;;;;;;5093499;28;1278;-72
2022/10/20 12:44:44;;;;;;;;;;;;;;;;;;5093504;28;1071;-72
2022/10/20 12:47:18;;;;;;;;;;;;;;;;;;5092082;28;1989;-72
2022/10/20 12:49:45;;;;;;;;;;;;;;;;;;5093585;28;794;-72
2022/10/20 12:52:16;;;;;;;;;;;;;;;;;;5093054;28;1269;-72
2022/10/20 12:54:42;;;;;;;;;;;;;;;;;;5091723;28;1507;-72
2022/10/20 12:57:24;;;;;;;;;;;;;;;;;;5093689;28;1151;-73
2022/10/20 12:59:51;;;;;;;;;;;;;;;;;;5092811;28;1127;-71
2022/10/20 13:02:38;;;;;;;;;;;;;;;;;;5092891;28;1349;-73
2022/10/20 13:05:19;;;;;;;;;;;;;;;;;;5092988;28;1906;-72
2022/10/20 13:08:04;;;;;;;;;;;;;;;;;;5092983;28;1893;-73
2022/10/20 13:10:33;;;;;;;;;;;;;;;;;;5093008;28;1021;-73
2022/10/20 13:13:18;;;;;;;;;;;;;;;;;;5092787;28;1387;-73
2022/10/20 13:15:44;;;;;;;;;;;;;;;;;;5092834;28;996;-73
2022/10/20 13:18:14;;;;;;;;;;;;;;;;;;5093005;28;988;-72
2022/10/20 13:20:42;;;;;;;;;;;;;;;;;;5092959;28;1149;-72
2022/10/20 13:23:09;;;;;;;;;;;;;;;;;;5092028;28;1444;-72
2022/10/20 13:25:37;;;;;;;;;;;;;;;;;;5091624;28;1909;-73
2022/10/20 13:28:11;;;;;;;;;;;;;;;;;;5092846;28;991;-71
2022/10/20 13:30:38;;;;;;;;;;;;;;;;;;5092807;28;790;-73
2022/10/20 13:33:06;;;;;;;;;;;;;;;;;;5092223;28;1381;-73
2022/10/20 13:35:33;;;;;;;;;;;;;;;;;;5108333;28;1134;-73
2022/10/20 13:38:00;;;;;;;;;;;;;;;;;;5107670;28;1498;-73
2022/10/20 13:40:28;;;;;;;;;;;;;;;;;;5090200;28;1345;-71
2022/10/20 13:42:59;;;;;;;;;;;;;;;;;;5091982;28;1369;-73
2022/10/20 13:45:27;;;;;;;;;;;;;;;;;;5092267;28;1918;-72
2022/10/20 13:47:56;;;;;;;;;;;;;;;;;;5092843;28;1012;-73
2022/10/20 13:50:23;;;;;;;;;;;;;;;;;;5092531;28;1067;-73
2022/10/20 13:52:49;;;;;;;;;;;;;;;;;;5092287;28;1286;-71
2022/10/20 13:55:17;;;;;;;;;;;;;;;;;;5091622;28;1262;-72
2022/10/20 13:57:46;;;;;;;;;;;;;;;;;;5077982;28;1403;-73
2022/10/20 14:00:18;;;;;;;;;;;;;;;;;;5092178;28;1415;-73
2022/10/20 14:02:51;;;;;;;;;;;;;;;;;;5084897;28;1473;-72
2022/10/20 14:05:19;;;;;;;;;;;;;;;;;;5071931;28;938;-74
2022/10/20 14:07:45;;;;;;;;;;;;;;;;;;5084585;28;1981;-72
2022/10/20 14:10:29;;;;;;;;;;;;;;;;;;5092022;28;1208;-73
2022/10/20 14:12:55;;;;;;;;;;;;;;;;;;5091706;28;1314;-72
2022/10/20 14:15:28;;;;;;;;;;;;;;;;;;5094800;28;1400;-73
2022/10/20 14:17:55;;;;;;;;;;;;;;;;;;5091719;28;1228;-71
2022/10/20 14:20:22;;;;;;;;;;;;;;;;;;5096334;28;766;-73
2022/10/20 14:22:48;;;;;;;;;;;;;;;;;;5090598;28;1658;-72
2022/10/20 14:25:14;;;;;;;;;;;;;;;;;;5094272;28;1288;-72
2022/10/20 14:27:40;;;;;;;;;;;;;;;;;;5093122;28;1906;-72
2022/10/20 14:30:07;;;;;;;;;;;;;;;;;;5091110;28;1368;-71
2022/10/20 14:32:35;;;;;;;;;;;;;;;;;;5093748;28;1286;-72
2022/10/20 14:35:02;;;;;;;;;;;;;;;;;;5094060;28;763;-72
2022/10/20 14:37:29;;;;;;;;;;;;;;;;;;5094368;28;1071;-72
2022/10/20 14:39:55;;;;;;;;;;;;;;;;;;5090967;28;1560;-72
2022/10/20 14:42:23;;;;;;;;;;;;;;;;;;5093640;28;1583;-72
2022/10/20 14:44:49;;;;;;;;;;;;;;;;;;5091896;28;1413;-71
2022/10/20 14:47:15;;;;;;;;;;;;;;;;;;5095521;28;2005;-72
2022/10/20 14:49:45;;;;;;;;;;;;;;;;;;5082937;28;1551;-72
2022/10/20 14:52:19;;;;;;;;;;;;;;;;;;5102004;28;1421;-72
2022/10/20 14:54:45;;;;;;;;;;;;;;;;;;5078261;28;1119;-71
2022/10/20 14:57:28;;;;;;;;;;;;;;;;;;5088170;28;1627;-70
2022/10/20 15:00:01;;;;;;;;;;;;;;;;;;5076709;28;1153;-72
2022/10/20 15:02:28;;;;;;;;;;;;;;;;;;5072805;28;1298;-72
2022/10/20 15:04:55;;;;;;;;;;;;;;;;;;5072958;28;1051;-71
2022/10/20 15:07:22;;;;;;;;;;;;;;;;;;5072753;28;1919;-71
2022/10/20 15:09:48;;;;;;;;;;;;;;;;;;5088598;28;1457;-72
2022/10/20 15:12:16;;;;;;;;;;;;;;;;;;5091541;28;1337;-72
2022/10/20 15:14:42;;;;;;;;;;;;;;;;;;5093385;28;917;-72
2022/10/20 15:17:23;;;;;;;;;;;;;;;;;;5093025;28;1342;-72
2022/10/20 15:19:49;;;;;;;;;;;;;;;;;;5091899;28;1849;-72
2022/10/20 15:22:17;;;;;;;;;;;;;;;;;;5081112;28;1309;-72
2022/10/20 15:24:43;;;;;;;;;;;;;;;;;;5072629;28;1064;-73
2022/10/20 15:27:11;;;;;;;;;;;;;;;;;;5072506;28;1918;-73
2022/10/20 15:29:37;;;;;;;;;;;;;;;;;;5080480;28;1469;-72
2022/10/20 15:32:03;;;;;;;;;;;;;;;;;;5083114;28;1125;-73
2022/10/20 15:34:29;;;;;;;;;;;;;;;;;;5079046;28;1478;-73
2022/10/20 15:36:55;;;;;;;;;;;;;;;;;;5092536;28;1463;-71
2022/10/20 15:39:23;;;;;;;;;;;;;;;;;;5094774;28;1406;-72
2022/10/20 15:41:49;;;;;;;;;;;;;;;;;;5094417;28;940;-72
2022/10/20 15:44:16;;;;;;;;;;;;;;;;;;5094741;28;1297;-73
2022/10/20 15:46:43;;;;;;;;;;;;;;;;;;5094506;28;1902;-73
2022/10/20 15:49:09;;;;;;;;;;;;;;;;;;5094798;28;1075;-72
2022/10/20 15:51:37;;;;;;;;;;;;;;;;;;5094298;28;1075;-72
2022/10/20 15:54:03;;;;;;;;;;;;;;;;;;5094299;28;1258;-72
2022/10/20 15:56:31;;;;;;;;;;;;;;;;;;5094752;28;1054;-72
2022/10/20 15:58:58;;;;;;;;;;;;;;;;;;5110301;28;1261;-72
2022/10/20 16:01:24;;;;;;;;;;;;;;;;;;5094255;28;1051;-72
2022/10/20 16:03:50;;;;;;;;;;;;;;;;;;5094320;28;1238;-73
2022/10/20 16:06:17;;;;;;;;;;;;;;;;;;5122089;22;3655;-75
2022/10/20 16:08:43;;;;;;;;;;;;;;;;;;5115931;28;1092;-73
2022/10/20 16:11:09;;;;;;;;;;;;;;;;;;5096761;28;1135;-73
2022/10/20 16:13:37;;;;;;;;;;;;;;;;;;5114596;28;1138;-74
2022/10/20 16:16:04;;;;;;;;;;;;;;;;;;5114945;28;1348;-75
2022/10/20 16:18:30;;;;;;;;;;;;;;;;;;5114912;28;1087;-75
2022/10/20 16:20:57;;;;;;;;;;;;;;;;;;5114830;28;1070;-75
2022/10/20 16:23:23;;;;;;;;;;;;;;;;;;5114428;28;1122;-74
2022/10/20 16:25:49;;;;;;;;;;;;;;;;;;5116743;28;1360;-75
2022/10/20 16:28:15;;;;;;;;;;;;;;;;;;5116280;28;1971;-74
2022/10/20 16:30:43;;;;;;;;;;;;;;;;;;5096403;28;1393;-74
2022/10/20 16:33:09;;;;;;;;;;;;;;;;;;5114201;28;921;-73
2022/10/20 16:35:40;;;;;;;;;;;;;;;;;;5114056;28;1383;-72
2022/10/20 16:38:06;;;;;;;;;;;;;;;;;;5081491;28;1601;-73
2022/10/20 16:40:32;;;;;;;;;;;;;;;;;;5055665;28;1407;-73
2022/10/20 16:42:59;;;;;;;;;;;;;;;;;;5073415;28;929;-73
2022/10/20 16:45:25;;;;;;;;;;;;;;;;;;5073292;28;1547;-74
2022/10/20 16:47:52;;;;;;;;;;;;;;;;;;5091882;28;1967;-74
2022/10/20 16:50:19;;;;;;;;;;;;;;;;;;5096302;28;1315;-75
2022/10/20 16:52:45;;;;;;;;;;;;;;;;;;5095310;28;1330;-72
2022/10/20 16:55:11;;;;;;;;;;;;;;;;;;5071921;28;1477;-74
2022/10/20 16:57:38;;;;;;;;;;;;;;;;;;5095381;28;1144;-75
2022/10/20 17:00:04;;;;;;;;;;;;;;;;;;5102029;28;1369;-75
2022/10/20 17:02:31;;;;;;;;;;;;;;;;;;5091340;28;795;-75
2022/10/20 17:04:58;;;;;;;;;;;;;;;;;;5089682;28;1430;-75
2022/10/20 17:07:24;;;;;;;;;;;;;;;;;;5095529;28;1929;-75
2022/10/20 17:09:50;;;;;;;;;;;;;;;;;;5071093;28;1000;-72